»·PEaware :: N9226D KAPA-KBDU

N9226D :: KAPA-KBDU

FLIGHT INFORMATION

Flight Status: Arrived
Operator: Privately registered:
United States
More flights under this callsign
Pilot: James W. (24810)
Aircraft: PIPER PA-22 TRI PACER/CARIBBEAN
(PA22)
More flights by this aircraft type
Origin: KAPA Centennial
United States
Destination: KBDU Boulder Mun
United States
More flights between these airports :: More routes between these airports
Route:
File this flight plan on PilotEdge
Remarks:
Altitude:
(Current/Filed)
8,500ft
Speed:
(Current/Filed)
120kts
Departed: 24-Jan-23 07:57 PM
Arrived: 24-Jan-23 08:25 PM
Distance/Time
Traveled:
33nm/0:28
Distance/Time
To Go:
Arrived

Flight Plot

Page will automatically refresh every two minutes.

Flight plan parsing failed; only flown route is shown


Map Options




Map Legend


Flown Route
Filed Route
Departure Airport
Arrival Airport
Navaid (VOR, NDB)
Fix

Horizontal Profiles

Position Reports

Time Latitude Longitude Heading Altitude Ground
Speed
24-Jan-23 19:40 39.583026 -104.848988 269 5888ft 0kts
24-Jan-23 19:41 39.583026 -104.848988 269 5888ft 0kts
24-Jan-23 19:42 39.583026 -104.848988 269 5888ft 0kts
24-Jan-23 19:43 39.583026 -104.849002 269 5888ft 0kts
24-Jan-23 19:44 39.583026 -104.849001 269 5888ft 0kts
24-Jan-23 19:45 39.583026 -104.849001 269 5888ft 0kts
24-Jan-23 19:46 39.583026 -104.849001 269 5888ft 0kts
24-Jan-23 19:47 39.583026 -104.849001 269 5888ft 0kts
24-Jan-23 19:48 39.583026 -104.849002 269 5888ft 0kts
24-Jan-23 19:49 39.583026 -104.849001 269 5888ft 0kts
24-Jan-23 19:50 39.583026 -104.849001 269 5888ft 0kts
24-Jan-23 19:51 39.583026 -104.849001 269 5888ft 0kts
24-Jan-23 19:52 39.583026 -104.849001 269 5888ft 0kts
24-Jan-23 19:53 39.583026 -104.849001 269 5888ft 0kts
24-Jan-23 19:54 39.584015 -104.849531 334 5888ft 6kts
24-Jan-23 19:55 39.584112 -104.850305 266 5888ft 0kts
24-Jan-23 19:56 39.581848 -104.851383 177 5888ft 52kts
24-Jan-23 19:57 39.564509 -104.850175 182 6371ft 63kts
24-Jan-23 19:58 39.552201 -104.860785 270 6731ft 86kts
24-Jan-23 19:59 39.554070 -104.891175 272 7345ft 81kts
24-Jan-23 20:00 39.554998 -104.922176 269 7697ft 93kts
24-Jan-23 20:01 39.560442 -104.955711 262 7761ft 104kts
24-Jan-23 20:02 39.559848 -104.994893 273 7516ft 106kts
24-Jan-23 20:03 39.568571 -105.031834 291 7119ft 106kts
24-Jan-23 20:04 39.581579 -105.064488 291 7199ft 101kts
24-Jan-23 20:05 39.594426 -105.097342 305 7399ft 100kts
24-Jan-23 20:06 39.619568 -105.115939 337 7553ft 107kts
24-Jan-23 20:07 39.650168 -105.122744 353 7605ft 113kts
24-Jan-23 20:08 39.680670 -105.126459 349 7704ft 111kts
24-Jan-23 20:09 39.712192 -105.129698 352 7777ft 113kts
24-Jan-23 20:10 39.740858 -105.131536 353 7926ft 103kts
24-Jan-23 20:11 39.769884 -105.139391 347 7761ft 111kts
24-Jan-23 20:12 39.799774 -105.149047 347 7600ft 110kts
24-Jan-23 20:13 39.830034 -105.156375 343 7478ft 107kts
24-Jan-23 20:14 39.858769 -105.166104 344 7377ft 110kts
24-Jan-23 20:16 39.888246 -105.177923 342 7207ft 112kts
24-Jan-23 20:17 39.917142 -105.187661 344 7196ft 107kts
24-Jan-23 20:18 39.946761 -105.197706 343 6911ft 117kts
24-Jan-23 20:19 39.978583 -105.208164 344 6519ft 117kts
24-Jan-23 20:20 40.008859 -105.218539 343 6371ft 106kts
24-Jan-23 20:21 40.037202 -105.220641 358 6347ft 100kts
24-Jan-23 20:22 40.055561 -105.233367 270 6211ft 73kts
24-Jan-23 20:23 40.044426 -105.247918 165 5935ft 74kts
24-Jan-23 20:24 40.039078 -105.225296 89 5280ft 41kts
24-Jan-23 20:25 40.038651 -105.219337 235 5252ft 0kts
24-Jan-23 20:26 40.038538 -105.221835 269 5265ft 11kts
24-Jan-23 20:27 40.038538 -105.225756 267 5281ft 13kts
24-Jan-23 20:28 40.038183 -105.230089 252 5286ft 7kts
24-Jan-23 20:29 40.038044 -105.230448 268 5286ft 0kts
24-Jan-23 20:30 40.038044 -105.230448 268 5286ft 0kts
24-Jan-23 20:31 40.038044 -105.230448 268 5286ft 0kts
24-Jan-23 20:32 40.038044 -105.230448 268 5286ft 0kts

Navigation Log

Ident Type
Flight plan parsing failed, navigation log unavailable